Time;durP1;ratioP1;P1;durP2;ratioP2;P2;SDS_P1;SDS_P2;PMS_P1;PMS_P2;Temp;Humidity;BMP_temperature;BMP_pressure;BME280_temperature;BME280_humidity;BME280_pressure;Samples;Min_cycle;Max_cycle;Signal;HPM_P1;HPM_P2
2021/05/09 00:17:10;;;;;;;70.97;31.63;;;;;;;4.42;63.52;98883.80;512689;1096;103472;-41
2021/05/09 00:27:14;;;;;;;47.33;22.13;;;;;;;4.48;63.55;98885.68;512829;1096;103173;-41
2021/05/09 00:37:19;;;;;;;57.10;26.20;;;;;;;4.55;64.14;98883.16;512617;1096;103468;-40
2021/05/09 00:47:23;;;;;;;58.37;28.33;;;;;;;4.53;64.23;98877.30;512565;1101;103174;-40
2021/05/09 00:57:29;;;;;;;60.75;28.95;;;;;;;4.46;63.98;98884.25;512579;1101;104456;-41
2021/05/09 01:07:35;;;;;;;54.87;27.33;;;;;;;4.36;64.39;98881.92;512499;1101;103168;-41
2021/05/09 01:17:39;;;;;;;37.30;21.37;;;;;;;4.51;64.56;98881.91;512616;1096;103165;-41
2021/05/09 01:27:43;;;;;;;45.13;23.07;;;;;;;4.66;64.62;98869.56;512499;1101;103133;-41
2021/05/09 01:37:47;;;;;;;46.10;25.65;;;;;;;4.73;64.67;98857.37;512407;1101;103165;-41
2021/05/09 01:47:52;;;;;;;54.30;28.25;;;;;;;4.77;64.44;98865.66;513577;1085;103624;-41
2021/05/09 01:57:56;;;;;;;57.20;27.87;;;;;;;4.77;64.37;98847.33;512703;1101;103104;-41
2021/05/09 02:08:03;;;;;;;54.47;27.87;;;;;;;4.77;64.38;98835.03;512784;1097;103467;-41
2021/05/09 02:18:08;;;;;;;36.13;18.73;;;;;;;4.90;64.31;98832.52;512486;1101;103163;-41
2021/05/09 02:28:12;;;;;;;41.80;20.53;;;;;;;4.90;64.28;98840.38;512655;1101;103195;-40
2021/05/09 02:38:18;;;;;;;47.50;24.10;;;;;;;4.75;64.37;98844.89;512556;1101;103253;-39
2021/05/09 02:48:22;;;;;;;48.00;24.90;;;;;;;4.61;64.07;98838.70;512650;1101;104220;-40
2021/05/09 02:58:26;;;;;;;50.23;25.93;;;;;;;4.57;64.50;98836.64;512612;1097;103170;-40
2021/05/09 03:08:33;;;;;;;23.83;15.53;;;;;;;4.71;64.97;98843.63;512684;1100;103233;-40
2021/05/09 03:18:37;;;;;;;37.47;20.57;;;;;;;4.88;64.59;98829.28;512703;1101;103199;-42
2021/05/09 03:28:42;;;;;;;41.23;21.63;;;;;;;5.07;64.34;98834.89;512557;1101;103550;-40
2021/05/09 03:38:46;;;;;;;39.10;21.10;;;;;;;5.16;64.45;98842.41;512546;1097;103535;-40
2021/05/09 03:48:49;;;;;;;44.30;23.33;;;;;;;5.31;64.66;98844.15;512649;1101;103170;-40
2021/05/09 03:58:53;;;;;;;47.27;24.63;;;;;;;5.42;64.67;98851.48;512609;1100;103167;-40
2021/05/09 04:08:57;;;;;;;35.23;17.80;;;;;;;5.77;64.06;98836.59;512703;1101;103174;-40
2021/05/09 04:19:01;;;;;;;47.77;22.33;;;;;;;5.95;63.97;98838.73;512515;1101;103551;-41
2021/05/09 04:29:05;;;;;;;43.07;22.70;;;;;;;6.15;63.81;98836.98;512552;1101;103162;-39
2021/05/09 04:39:10;;;;;;;43.25;22.35;;;;;;;6.34;63.48;98832.81;512674;1101;103505;-40
2021/05/09 04:49:38;;;;;;;41.43;21.53;;;;;;;6.63;63.20;98829.88;512508;1101;103464;-40
2021/05/09 04:59:43;;;;;;;37.97;19.97;;;;;;;7.09;62.93;98826.47;512589;1095;103149;-39
2021/05/09 05:09:47;;;;;;;39.87;20.63;;;;;;;7.75;62.39;98825.59;512702;1100;103262;-40
2021/05/09 05:19:51;;;;;;;33.23;17.37;;;;;;;9.25;61.00;98817.11;512511;1097;104329;-42
2021/05/09 05:29:55;;;;;;;31.03;17.53;;;;;;;11.69;58.88;98810.36;512414;1101;103439;-41
2021/05/09 05:40:00;;;;;;;29.17;15.43;;;;;;;11.82;55.74;98812.78;512630;1097;104480;-41
2021/05/09 05:50:04;;;;;;;26.40;13.57;;;;;;;11.94;55.22;98821.53;512614;1101;103505;-41
2021/05/09 06:00:10;;;;;;;20.67;10.70;;;;;;;12.03;54.44;98821.16;512576;1101;103525;-41
2021/05/09 06:10:14;;;;;;;13.90;9.10;;;;;;;12.04;53.61;98826.22;512765;1101;103170;-40
2021/05/09 06:20:19;;;;;;;12.73;7.77;;;;;;;13.48;51.13;98837.28;512611;1096;103163;-42
2021/05/09 06:30:24;;;;;;;12.37;6.37;;;;;;;14.26;48.52;98824.78;512401;1096;104595;-41
2021/05/09 06:40:28;;;;;;;8.03;5.20;;;;;;;14.88;47.35;98813.72;512761;1097;103557;-44
2021/05/09 06:50:33;;;;;;;7.37;5.13;;;;;;;14.97;46.33;98816.74;512765;1101;103655;-41
2021/05/09 07:00:38;;;;;;;6.73;5.17;;;;;;;15.54;45.72;98798.23;512826;1101;103189;-41
2021/05/09 07:10:42;;;;;;;7.80;4.63;;;;;;;15.85;44.85;98798.42;512746;1101;103173;-40
2021/05/09 07:20:52;;;;;;;9.53;5.10;;;;;;;15.96;44.32;98784.09;512638;1101;103251;-41
2021/05/09 07:30:57;;;;;;;6.50;4.65;;;;;;;16.44;43.76;98787.44;512588;1101;103531;-41
2021/05/09 07:41:01;;;;;;;7.73;4.47;;;;;;;16.48;42.74;98780.50;512447;1101;103231;-42
2021/05/09 07:51:09;;;;;;;8.07;3.93;;;;;;;16.75;43.09;98772.30;512809;1101;103206;-41
2021/05/09 08:01:14;;;;;;;5.73;3.75;;;;;;;17.06;41.77;98765.91;512673;1096;103280;-40
2021/05/09 08:11:18;;;;;;;6.80;4.77;;;;;;;17.35;42.56;98771.48;512590;1095;103187;-42
2021/05/09 08:21:22;;;;;;;7.50;4.60;;;;;;;17.67;41.36;98767.65;512864;1101;103161;-41
2021/05/09 08:31:27;;;;;;;6.60;4.83;;;;;;;18.02;40.69;98758.73;512514;1101;104543;-40
2021/05/09 08:41:33;;;;;;;6.03;4.20;;;;;;;17.88;39.70;98752.36;512589;1101;103128;-41
2021/05/09 08:51:38;;;;;;;4.87;3.40;;;;;;;18.14;40.21;98750.37;512490;1101;103528;-42
2021/05/09 09:01:43;;;;;;;7.50;3.35;;;;;;;18.38;39.61;98753.98;512504;1101;103488;-41
2021/05/09 09:11:49;;;;;;;4.00;3.20;;;;;;;18.49;39.40;98750.17;512791;1101;103191;-41
2021/05/09 09:21:56;;;;;;;5.17;3.00;;;;;;;19.13;40.74;98740.30;512549;1101;103461;-42
2021/05/09 09:32:02;;;;;;;8.05;4.00;;;;;;;19.14;37.08;98741.89;512651;1101;103164;-40
2021/05/09 09:42:06;;;;;;;9.80;3.63;;;;;;;19.12;37.98;98741.38;512710;1096;103197;-41
2021/05/09 09:52:11;;;;;;;5.07;3.13;;;;;;;19.54;38.29;98736.16;512557;1101;103467;-42
2021/05/09 10:02:15;;;;;;;4.23;2.70;;;;;;;19.76;37.54;98732.16;512519;1101;104623;-42
2021/05/09 10:12:19;;;;;;;4.00;2.40;;;;;;;20.04;37.74;98717.03;512482;1101;103212;-40
2021/05/09 10:22:26;;;;;;;3.23;2.30;;;;;;;19.96;35.21;98706.95;512732;1101;103186;-41
2021/05/09 10:43:30;;;;;;;3.30;2.10;;;;;;;20.54;36.58;98696.72;512649;1101;103525;-41
2021/05/09 10:53:42;;;;;;;5.00;2.57;;;;;;;20.63;36.59;98688.81;512542;1101;103217;-43
2021/05/09 11:03:54;;;;;;;2.70;2.23;;;;;;;20.83;34.80;98699.23;512480;1101;103178;-40
2021/05/09 11:14:20;;;;;;;3.00;2.20;;;;;;;20.91;35.96;98695.05;512620;1097;103280;-42
2021/05/09 11:24:26;;;;;;;6.95;2.20;;;;;;;21.14;35.49;98686.03;512452;1101;103170;-40
2021/05/09 11:34:31;;;;;;;3.80;2.15;;;;;;;21.44;34.66;98673.92;512694;1101;103186;-41
2021/05/09 11:44:40;;;;;;;2.83;2.20;;;;;;;21.42;35.17;98665.36;512595;1095;104449;-41
2021/05/09 12:05:11;;;;;;;4.60;2.57;;;;;;;21.39;34.02;98660.58;512760;1096;103163;-41
2021/05/09 12:15:15;;;;;;;2.65;1.70;;;;;;;21.56;34.80;98647.32;512616;1101;103531;-40
2021/05/09 12:25:31;;;;;;;2.77;2.10;;;;;;;21.47;34.24;98632.17;512611;1101;103483;-41
2021/05/09 12:35:45;;;;;;;4.03;1.47;;;;;;;21.79;34.23;98610.50;512760;1101;103167;-43
2021/05/09 12:45:52;;;;;;;3.80;1.90;;;;;;;21.92;34.89;98592.70;512516;1096;104605;-42
2021/05/09 12:56:27;;;;;;;0.67;0.67;;;;;;;22.02;33.46;98581.71;512616;1096;103486;-40
2021/05/09 13:06:31;;;;;;;1.37;0.90;;;;;;;22.17;33.66;98580.56;512581;1101;103185;-41
2021/05/09 13:16:36;;;;;;;2.00;1.07;;;;;;;22.15;32.57;98572.00;512830;1100;103525;-43
2021/05/09 13:26:40;;;;;;;1.53;1.00;;;;;;;22.01;32.70;98555.89;512763;1101;103591;-40
2021/05/09 13:36:46;;;;;;;2.60;1.23;;;;;;;21.95;34.04;98565.16;512770;1101;103186;-41
2021/05/09 13:46:51;;;;;;;2.00;1.33;;;;;;;22.16;33.97;98555.53;512622;1101;103211;-40
2021/05/09 13:56:55;;;;;;;1.60;0.93;;;;;;;22.13;33.36;98547.27;512786;1101;103162;-41
2021/05/09 14:07:00;;;;;;;3.45;1.00;;;;;;;22.07;33.88;98530.45;512743;1101;103230;-42
2021/05/09 14:17:04;;;;;;;5.93;1.13;;;;;;;22.22;34.82;98523.88;512777;1096;103171;-41
2021/05/09 14:27:10;;;;;;;3.43;1.10;;;;;;;22.19;33.11;98511.03;512787;1101;103127;-44
2021/05/09 14:37:14;;;;;;;3.93;1.13;;;;;;;22.15;33.55;98510.06;512806;1101;103154;-41
2021/05/09 14:47:19;;;;;;;1.35;1.00;;;;;;;22.13;33.12;98501.50;512478;1101;103217;-42
2021/05/09 14:57:23;;;;;;;1.20;1.10;;;;;;;22.08;33.96;98507.81;512375;1096;103300;-41
2021/05/09 15:07:31;;;;;;;4.50;1.67;;;;;;;22.10;34.54;98497.52;512513;1101;103163;-41
2021/05/09 15:17:35;;;;;;;2.70;1.20;;;;;;;22.05;33.65;98489.58;512535;1101;103125;-41
2021/05/09 15:27:40;;;;;;;1.75;1.65;;;;;;;21.97;34.25;98492.97;512513;1101;103201;-41
2021/05/09 15:37:44;;;;;;;3.03;1.10;;;;;;;21.90;34.13;98488.02;512550;1101;103163;-41
2021/05/09 15:47:49;;;;;;;2.03;1.60;;;;;;;21.89;34.46;98472.98;512671;1101;104612;-41
2021/05/09 15:57:53;;;;;;;3.57;1.20;;;;;;;21.79;34.11;98467.86;512700;1101;103524;-40
2021/05/09 16:07:58;;;;;;;2.90;1.10;;;;;;;21.67;34.96;98464.91;512630;1096;104960;-40
2021/05/09 16:18:02;;;;;;;1.33;1.23;;;;;;;21.51;34.56;98453.70;512608;1095;103441;-41
2021/05/09 16:28:07;;;;;;;3.17;1.90;;;;;;;21.32;34.57;98453.10;512601;1101;103534;-41
2021/05/09 16:38:12;;;;;;;4.30;2.17;;;;;;;21.22;35.28;98446.02;512778;1096;103123;-41
2021/05/09 16:48:16;;;;;;;3.17;2.00;;;;;;;21.12;35.58;98454.31;512566;1101;103167;-41
2021/05/09 16:58:20;;;;;;;6.67;2.30;;;;;;;20.89;36.10;98447.30;512694;1101;103215;-42
2021/05/09 17:08:25;;;;;;;5.73;2.63;;;;;;;20.72;36.20;98443.33;512591;1101;103185;-41
2021/05/09 17:18:29;;;;;;;4.17;2.17;;;;;;;20.53;36.25;98442.63;512593;1101;103194;-41
2021/05/09 17:28:33;;;;;;;4.73;2.90;;;;;;;20.26;36.82;98442.60;512530;1101;103257;-41
2021/05/09 17:38:37;;;;;;;4.87;3.80;;;;;;;19.96;37.16;98442.06;512572;1100;103164;-43
2021/05/09 17:48:42;;;;;;;5.97;4.10;;;;;;;19.59;37.89;98441.05;512586;1096;103515;-41
2021/05/09 17:58:48;;;;;;;6.40;5.07;;;;;;;19.24;38.19;98444.27;512682;1101;103172;-41
2021/05/09 18:08:54;;;;;;;11.15;5.60;;;;;;;18.77;38.85;98437.94;512711;1101;103166;-41
2021/05/09 18:29:21;;;;;;;8.20;5.63;;;;;;;17.66;40.39;98445.17;512593;1101;103260;-41
2021/05/09 18:39:25;;;;;;;19.73;11.03;;;;;;;17.02;41.34;98446.14;512690;1101;103187;-41
2021/05/09 18:49:29;;;;;;;39.17;17.90;;;;;;;16.37;42.42;98454.14;512598;1096;103163;-40
2021/05/09 18:59:33;;;;;;;28.07;18.30;;;;;;;15.94;43.37;98474.21;512453;1096;103561;-42
2021/05/09 19:09:38;;;;;;;42.80;22.05;;;;;;;15.40;44.20;98482.70;512711;1101;103243;-42
2021/05/09 19:19:42;;;;;;;26.23;14.67;;;;;;;15.04;45.06;98474.61;512619;1097;103224;-40
2021/05/09 19:29:50;;;;;;;22.80;12.90;;;;;;;15.22;45.36;98481.33;512501;1101;103171;-41
2021/05/09 19:39:54;;;;;;;19.67;9.93;;;;;;;15.32;45.48;98475.20;512679;1097;103282;-41
2021/05/09 19:49:58;;;;;;;14.00;8.70;;;;;;;15.30;45.46;98480.00;512706;1101;103445;-44
2021/05/09 20:00:02;;;;;;;19.13;11.87;;;;;;;15.18;45.89;98476.80;512486;1101;103140;-41
2021/05/09 20:10:09;;;;;;;22.23;12.90;;;;;;;14.98;46.11;98473.01;512536;1095;103161;-41
2021/05/09 20:20:14;;;;;;;27.30;12.37;;;;;;;14.77;46.28;98478.52;512734;1096;103241;-40
2021/05/09 20:30:18;;;;;;;23.50;13.73;;;;;;;14.49;46.78;98479.72;512641;1097;103168;-41
2021/05/09 20:40:29;;;;;;;22.57;13.07;;;;;;;14.13;47.51;98477.61;512652;1097;103170;-40
2021/05/09 20:50:34;;;;;;;21.20;11.73;;;;;;;13.94;47.77;98492.36;512522;1101;103180;-40
2021/05/09 21:00:38;;;;;;;21.33;10.63;;;;;;;13.82;48.32;98495.20;512608;1097;103620;-41
2021/05/09 21:10:42;;;;;;;15.47;8.83;;;;;;;13.86;48.49;98498.15;512541;1101;103221;-41
2021/05/09 21:20:47;;;;;;;11.83;8.73;;;;;;;13.91;48.44;98497.38;512379;1097;103211;-42
2021/05/09 21:30:51;;;;;;;16.50;9.93;;;;;;;13.89;48.39;98491.52;512589;1095;104608;-41
2021/05/09 21:40:56;;;;;;;17.27;8.57;;;;;;;13.70;48.66;98507.84;512444;1101;103528;-41
2021/05/09 21:50:59;;;;;;;14.20;9.40;;;;;;;13.39;48.99;98498.80;512525;1101;103164;-42
2021/05/09 22:01:04;;;;;;;14.83;8.90;;;;;;;13.16;49.29;98499.05;512635;1101;103187;-40
2021/05/09 22:11:11;;;;;;;18.53;7.80;;;;;;;12.96;49.73;98493.52;512579;1101;103167;-41
2021/05/09 22:21:15;;;;;;;23.73;10.13;;;;;;;12.77;49.95;98485.86;512364;1101;103116;-41
2021/05/09 22:31:20;;;;;;;17.10;8.37;;;;;;;12.69;50.43;98475.69;512511;1096;103169;-41
2021/05/09 22:41:24;;;;;;;16.47;9.50;;;;;;;12.50;50.50;98463.77;512677;1097;103163;-41
2021/05/09 22:51:28;;;;;;;20.40;9.20;;;;;;;12.26;51.29;98469.30;512531;1101;104564;-41
2021/05/09 23:01:36;;;;;;;15.23;6.83;;;;;;;12.22;51.32;98462.08;512506;1101;104505;-41
2021/05/09 23:11:40;;;;;;;13.70;6.85;;;;;;;12.20;51.47;98458.88;512793;1101;103632;-41
2021/05/09 23:21:45;;;;;;;12.73;6.57;;;;;;;12.02;51.35;98465.23;512581;1096;103546;-41
2021/05/09 23:31:49;;;;;;;17.90;8.53;;;;;;;11.77;51.61;98468.27;512755;1101;103167;-41
2021/05/09 23:41:54;;;;;;;15.00;7.57;;;;;;;11.61;51.91;98463.79;512687;1101;104583;-42
2021/05/09 23:52:03;;;;;;;16.45;8.45;;;;;;;11.36;51.99;98461.52;512657;1101;103476;-40
